21分钟前
罗盘
风向 的 风向 350° Groningen Airport Eelde 5/23
风: 3 千吨, 1 beaufort
0 500 1.500 3.000 5.000 8.000 10.000
FEW 2.300 ft
SCT 4.600 ft
OVC 10.000 ft
METAR EHVL 291725Z AUTO 35003KT 9999 FEW023 SCT046 OVC100 05/03 Q1010 BLU

METAR定义 | 嵌入

24小时趋势

航班类别VFRLIFR
温度9 °C4 °C
风速30 千吨0 千吨
能见度10 公里+0 米

更多历史数据

下载我们的安卓应用程序

从你的主屏幕上轻松地访问你的航空天气。
只需一次付费,您就可以获得无广告的体验。

您会帮助我们保持Metar-Taf.com正常运行吗?
您的贡献有助于网站的进一步开发并支付费用。

没有更多广告

您是捐款5美元还是更多?然后,我们将永远不会再向您展示广告,这是我们永恒的感谢!
捐赠前先登录

METAR Groningen Airport Eelde

Groningen Airport Eelde是Groningen,荷兰中的中型机场。 机场有{a,plural,=1{一条跑道} other{#跑道}}: 5/23

Groningen Airport Eelde最近未发布观察结果。相反,我们向您显示101 km的报告Vlieland Heliport。 该报告是针对2021年11月29日 18:25, 当地时间进行的。

机场观察

风来自北 (350°)方向,速度为3 千吨。

可见度为10 公里 或者更多。

有几云在2.300 ft的高度, 疏云,零星散落的云朵在4.600 ft的高度 和 乌云密布在10.000 ft的高度。 破损或更高的上限为10.000 ft。

温度为5 °C,阵风为2 °C。 露点为3 °C,相对湿度为87%。 海平面上的气压为1010 压力 (QNH)。

白天

今天,太阳从08:22升起,在16:22降落。 这适用于Groningen Airport Eelde,世界夏令时可能有所不同。 当地时间与世界标准时间之间的时差为+1 小时。 当前,没有夏令时有效。

公司介绍

在这个机场,你可以找到飞行学校。 这个机场上的公司有Noord Nederlandse Aeroclub- Eelde, Martinair Flight Academy, KLM Luchtvaartschool, EFTC 和 KLM Flight Academy。

体会

到Vliegles.nl去找飞行课程,跳伞和其他飞行体验。 浏览页面,了解Groningen Airport Eelde附近所有可用的活动。 你也可以使用搜索功能来寻找你所在地附近的特定飞行课程、跳伞或其他飞行体验。

您是否要在网站上Groningen Airport Eelde飞行的天气? 阅读更多   自由!